createdAt,value
2022-12-31T00:06:16.554Z,0
2022-12-31T00:21:13.366Z,0
2022-12-31T00:36:09.377Z,0
2022-12-31T00:51:05.894Z,0
2022-12-31T01:06:02.096Z,0
2022-12-31T01:20:58.739Z,0.01
2022-12-31T01:35:54.741Z,0
2022-12-31T01:50:50.719Z,0
2022-12-31T02:05:46.695Z,0
2022-12-31T02:20:43.016Z,0.01
2022-12-31T02:35:39.616Z,0
2022-12-31T02:50:36.222Z,0
2022-12-31T03:05:32.478Z,0
2022-12-31T03:20:28.998Z,0
2022-12-31T03:35:25.353Z,0
2022-12-31T03:50:21.576Z,0
2022-12-31T04:05:17.749Z,0.01
2022-12-31T04:20:13.970Z,0
2022-12-31T04:35:10.567Z,0
2022-12-31T04:50:06.794Z,0
2022-12-31T05:05:03.210Z,0
2022-12-31T05:19:59.597Z,0
2022-12-31T05:34:55.985Z,0
2022-12-31T05:49:52.263Z,0
2022-12-31T06:04:48.730Z,0
2022-12-31T06:34:40.952Z,0
2022-12-31T06:49:37.103Z,0
2022-12-31T07:04:32.908Z,0.01
2022-12-31T07:19:29.276Z,0.01
2022-12-31T07:34:25.558Z,0.01
2022-12-31T07:49:22.023Z,0.02
2022-12-31T08:04:18.245Z,0.02
2022-12-31T08:19:14.638Z,0.03
2022-12-31T08:34:10.747Z,0.06
2022-12-31T08:49:06.939Z,0.02
2022-12-31T09:04:03.623Z,0.05
2022-12-31T09:19:00.385Z,0.07
2022-12-31T09:33:57.003Z,0.11
2022-12-31T09:48:53.304Z,0.1
2022-12-31T10:03:49.890Z,0.13
2022-12-31T10:18:46.254Z,0.1
2022-12-31T10:33:42.952Z,0.1
2022-12-31T10:48:38.887Z,0.09
2022-12-31T11:03:35.129Z,0.1
2022-12-31T11:18:31.489Z,0.1
2022-12-31T11:33:27.966Z,0.1
2022-12-31T11:48:32.139Z,0.11
2022-12-31T12:03:19.942Z,0.07
2022-12-31T12:18:16.036Z,0.13
2022-12-31T12:33:12.702Z,0.2
2022-12-31T12:48:08.825Z,0.14
2022-12-31T13:03:05.134Z,0.14
2022-12-31T13:18:01.996Z,0.21
2022-12-31T13:32:57.195Z,0.1
2022-12-31T13:47:53.249Z,0.1
2022-12-31T14:02:48.895Z,0.1
2022-12-31T14:17:44.800Z,0.1
2022-12-31T14:32:40.920Z,0.06
2022-12-31T14:47:36.735Z,0.07
2022-12-31T15:02:32.593Z,0.06
2022-12-31T15:17:27.859Z,0.05
2022-12-31T15:32:24.169Z,0.03
2022-12-31T15:47:20.055Z,0.02
2022-12-31T16:02:16.133Z,0
2022-12-31T16:17:11.303Z,0
2022-12-31T16:32:07.396Z,0
2022-12-31T16:47:03.008Z,0
2022-12-31T17:01:59.157Z,0.01
2022-12-31T17:17:01.578Z,0.01
2022-12-31T17:31:50.964Z,0.01
2022-12-31T17:46:47.247Z,0
2022-12-31T18:01:43.545Z,0.01
2022-12-31T18:16:39.522Z,0
2022-12-31T18:46:32.536Z,0
2022-12-31T19:01:28.949Z,0
2022-12-31T19:16:25.146Z,0
2022-12-31T19:31:21.232Z,0
2022-12-31T19:46:17.972Z,0
2022-12-31T20:01:14.164Z,0
2022-12-31T20:16:10.083Z,0
2022-12-31T20:31:06.226Z,0
2022-12-31T20:46:02.793Z,0
2022-12-31T21:00:59.644Z,0
2022-12-31T21:15:56.290Z,0
2022-12-31T21:30:52.297Z,0.01
2022-12-31T21:45:49.300Z,0.01
2022-12-31T23:15:26.570Z,0
2022-12-31T23:30:23.158Z,0
2022-12-31T23:45:19.202Z,0
